sensor_id;sensor_type;location;lat;lon;timestamp;P1;durP1;ratioP1;P2;durP2;ratioP2
60344;SDS011;46188;52.324;8.032;2023-07-28T00:01:19;9.50;;;5.28;;
60344;SDS011;46188;52.324;8.032;2023-07-28T00:03:44;7.50;;;5.10;;
60344;SDS011;46188;52.324;8.032;2023-07-28T00:06:09;7.60;;;5.13;;
60344;SDS011;46188;52.324;8.032;2023-07-28T00:08:35;8.52;;;5.22;;
60344;SDS011;46188;52.324;8.032;2023-07-28T00:11:00;14.65;;;5.80;;
60344;SDS011;46188;52.324;8.032;2023-07-28T00:13:25;7.10;;;4.43;;
60344;SDS011;46188;52.324;8.032;2023-07-28T00:15:51;6.57;;;5.00;;
60344;SDS011;46188;52.324;8.032;2023-07-28T00:18:16;6.60;;;4.25;;
60344;SDS011;46188;52.324;8.032;2023-07-28T00:20:43;6.55;;;4.63;;
60344;SDS011;46188;52.324;8.032;2023-07-28T00:23:08;7.30;;;4.72;;
60344;SDS011;46188;52.324;8.032;2023-07-28T00:25:33;4.97;;;4.17;;
60344;SDS011;46188;52.324;8.032;2023-07-28T00:27:59;8.43;;;4.77;;
60344;SDS011;46188;52.324;8.032;2023-07-28T00:30:24;7.00;;;5.68;;
60344;SDS011;46188;52.324;8.032;2023-07-28T00:32:50;7.85;;;5.18;;
60344;SDS011;46188;52.324;8.032;2023-07-28T00:35:15;8.40;;;5.60;;
60344;SDS011;46188;52.324;8.032;2023-07-28T00:37:41;6.47;;;4.90;;
60344;SDS011;46188;52.324;8.032;2023-07-28T00:40:06;7.93;;;4.95;;
60344;SDS011;46188;52.324;8.032;2023-07-28T00:42:32;6.78;;;4.82;;
60344;SDS011;46188;52.324;8.032;2023-07-28T00:44:57;8.73;;;4.75;;
60344;SDS011;46188;52.324;8.032;2023-07-28T00:47:22;7.05;;;4.78;;
60344;SDS011;46188;52.324;8.032;2023-07-28T00:49:47;11.45;;;4.75;;
60344;SDS011;46188;52.324;8.032;2023-07-28T00:52:13;8.15;;;4.53;;
60344;SDS011;46188;52.324;8.032;2023-07-28T00:54:38;7.43;;;5.15;;
60344;SDS011;46188;52.324;8.032;2023-07-28T00:57:04;6.90;;;4.50;;
60344;SDS011;46188;52.324;8.032;2023-07-28T00:59:30;6.03;;;4.20;;
60344;SDS011;46188;52.324;8.032;2023-07-28T01:01:55;6.35;;;4.28;;
60344;SDS011;46188;52.324;8.032;2023-07-28T01:04:21;6.57;;;4.70;;
60344;SDS011;46188;52.324;8.032;2023-07-28T01:09:24;9.02;;;4.90;;
60344;SDS011;46188;52.324;8.032;2023-07-28T01:11:59;7.15;;;4.40;;
60344;SDS011;46188;52.324;8.032;2023-07-28T01:14:26;6.20;;;4.32;;
60344;SDS011;46188;52.324;8.032;2023-07-28T01:16:51;6.85;;;4.63;;
60344;SDS011;46188;52.324;8.032;2023-07-28T01:19:17;7.20;;;4.53;;
60344;SDS011;46188;52.324;8.032;2023-07-28T01:21:45;8.10;;;5.07;;
60344;SDS011;46188;52.324;8.032;2023-07-28T01:27:06;6.18;;;4.43;;
60344;SDS011;46188;52.324;8.032;2023-07-28T01:29:33;7.15;;;5.00;;
60344;SDS011;46188;52.324;8.032;2023-07-28T01:31:59;7.38;;;5.05;;
60344;SDS011;46188;52.324;8.032;2023-07-28T01:34:25;7.78;;;5.30;;
60344;SDS011;46188;52.324;8.032;2023-07-28T01:36:50;7.93;;;5.13;;
60344;SDS011;46188;52.324;8.032;2023-07-28T01:39:16;7.97;;;5.68;;
60344;SDS011;46188;52.324;8.032;2023-07-28T01:41:41;10.82;;;5.55;;
60344;SDS011;46188;52.324;8.032;2023-07-28T01:44:08;8.40;;;5.68;;
60344;SDS011;46188;52.324;8.032;2023-07-28T01:46:34;8.15;;;5.55;;
60344;SDS011;46188;52.324;8.032;2023-07-28T01:48:59;9.20;;;6.05;;
60344;SDS011;46188;52.324;8.032;2023-07-28T01:51:24;8.65;;;5.13;;
60344;SDS011;46188;52.324;8.032;2023-07-28T01:53:50;7.53;;;5.45;;
60344;SDS011;46188;52.324;8.032;2023-07-28T01:56:15;8.13;;;5.95;;
60344;SDS011;46188;52.324;8.032;2023-07-28T01:58:40;8.57;;;5.28;;
60344;SDS011;46188;52.324;8.032;2023-07-28T02:01:05;11.15;;;6.00;;
60344;SDS011;46188;52.324;8.032;2023-07-28T02:03:30;7.57;;;5.45;;
60344;SDS011;46188;52.324;8.032;2023-07-28T02:05:56;8.25;;;6.35;;
60344;SDS011;46188;52.324;8.032;2023-07-28T02:08:21;6.95;;;5.60;;
60344;SDS011;46188;52.324;8.032;2023-07-28T02:10:46;8.45;;;6.30;;
60344;SDS011;46188;52.324;8.032;2023-07-28T02:13:11;9.70;;;6.40;;
60344;SDS011;46188;52.324;8.032;2023-07-28T02:15:37;7.97;;;5.57;;
60344;SDS011;46188;52.324;8.032;2023-07-28T02:18:02;7.65;;;5.63;;
60344;SDS011;46188;52.324;8.032;2023-07-28T02:20:27;9.07;;;6.07;;
60344;SDS011;46188;52.324;8.032;2023-07-28T02:22:52;6.80;;;5.53;;
60344;SDS011;46188;52.324;8.032;2023-07-28T02:25:18;8.13;;;5.10;;
60344;SDS011;46188;52.324;8.032;2023-07-28T02:27:43;7.68;;;5.70;;
60344;SDS011;46188;52.324;8.032;2023-07-28T02:30:08;7.72;;;6.05;;
60344;SDS011;46188;52.324;8.032;2023-07-28T02:32:35;14.70;;;6.78;;
60344;SDS011;46188;52.324;8.032;2023-07-28T02:35:01;9.82;;;6.10;;
60344;SDS011;46188;52.324;8.032;2023-07-28T02:37:27;8.77;;;5.47;;
60344;SDS011;46188;52.324;8.032;2023-07-28T02:39:52;8.27;;;5.57;;
60344;SDS011;46188;52.324;8.032;2023-07-28T02:42:17;9.02;;;6.63;;
60344;SDS011;46188;52.324;8.032;2023-07-28T02:44:42;9.70;;;6.90;;
60344;SDS011;46188;52.324;8.032;2023-07-28T02:47:08;8.45;;;6.28;;
60344;SDS011;46188;52.324;8.032;2023-07-28T02:49:33;10.13;;;6.82;;
60344;SDS011;46188;52.324;8.032;2023-07-28T02:51:58;11.02;;;6.63;;
60344;SDS011;46188;52.324;8.032;2023-07-28T02:54:24;8.05;;;6.13;;
60344;SDS011;46188;52.324;8.032;2023-07-28T02:56:50;9.68;;;6.18;;
60344;SDS011;46188;52.324;8.032;2023-07-28T02:59:15;8.70;;;6.80;;
60344;SDS011;46188;52.324;8.032;2023-07-28T03:01:40;9.43;;;6.70;;
60344;SDS011;46188;52.324;8.032;2023-07-28T03:04:06;8.25;;;6.15;;
60344;SDS011;46188;52.324;8.032;2023-07-28T03:06:31;9.55;;;6.15;;
60344;SDS011;46188;52.324;8.032;2023-07-28T03:08:58;9.88;;;6.43;;
60344;SDS011;46188;52.324;8.032;2023-07-28T03:11:23;12.50;;;6.32;;
60344;SDS011;46188;52.324;8.032;2023-07-28T03:13:49;9.30;;;6.22;;
60344;SDS011;46188;52.324;8.032;2023-07-28T03:16:14;9.43;;;6.93;;
60344;SDS011;46188;52.324;8.032;2023-07-28T03:18:39;10.25;;;6.10;;
60344;SDS011;46188;52.324;8.032;2023-07-28T03:21:05;8.82;;;6.40;;
60344;SDS011;46188;52.324;8.032;2023-07-28T03:23:30;9.63;;;6.43;;
60344;SDS011;46188;52.324;8.032;2023-07-28T03:25:55;11.55;;;6.22;;
60344;SDS011;46188;52.324;8.032;2023-07-28T03:28:20;8.82;;;5.95;;
60344;SDS011;46188;52.324;8.032;2023-07-28T03:30:46;7.68;;;6.20;;
60344;SDS011;46188;52.324;8.032;2023-07-28T03:33:11;11.40;;;5.75;;
60344;SDS011;46188;52.324;8.032;2023-07-28T03:35:36;7.10;;;5.57;;
60344;SDS011;46188;52.324;8.032;2023-07-28T03:38:01;7.15;;;5.55;;
60344;SDS011;46188;52.324;8.032;2023-07-28T03:40:27;8.00;;;6.05;;
60344;SDS011;46188;52.324;8.032;2023-07-28T03:42:53;8.10;;;5.88;;
60344;SDS011;46188;52.324;8.032;2023-07-28T03:45:18;7.47;;;5.20;;
60344;SDS011;46188;52.324;8.032;2023-07-28T03:47:44;7.90;;;5.22;;
60344;SDS011;46188;52.324;8.032;2023-07-28T03:50:09;8.25;;;4.97;;
60344;SDS011;46188;52.324;8.032;2023-07-28T03:52:34;7.72;;;4.95;;
60344;SDS011;46188;52.324;8.032;2023-07-28T03:55:00;8.32;;;5.15;;
60344;SDS011;46188;52.324;8.032;2023-07-28T03:57:25;7.53;;;5.00;;
60344;SDS011;46188;52.324;8.032;2023-07-28T03:59:50;7.70;;;5.10;;
60344;SDS011;46188;52.324;8.032;2023-07-28T04:02:15;7.20;;;4.35;;
60344;SDS011;46188;52.324;8.032;2023-07-28T04:04:42;6.30;;;4.60;;
60344;SDS011;46188;52.324;8.032;2023-07-28T04:07:07;10.65;;;5.40;;
60344;SDS011;46188;52.324;8.032;2023-07-28T04:09:32;7.20;;;5.10;;
60344;SDS011;46188;52.324;8.032;2023-07-28T04:11:58;7.70;;;5.07;;
60344;SDS011;46188;52.324;8.032;2023-07-28T04:14:23;7.03;;;5.00;;
60344;SDS011;46188;52.324;8.032;2023-07-28T04:16:48;7.18;;;4.53;;
60344;SDS011;46188;52.324;8.032;2023-07-28T04:19:13;7.88;;;4.68;;
60344;SDS011;46188;52.324;8.032;2023-07-28T04:21:39;7.65;;;4.78;;
60344;SDS011;46188;52.324;8.032;2023-07-28T04:24:05;7.72;;;4.47;;
60344;SDS011;46188;52.324;8.032;2023-07-28T04:26:32;10.07;;;4.85;;
60344;SDS011;46188;52.324;8.032;2023-07-28T04:28:57;8.85;;;5.18;;
60344;SDS011;46188;52.324;8.032;2023-07-28T04:31:22;10.70;;;4.57;;
60344;SDS011;46188;52.324;8.032;2023-07-28T04:33:47;6.35;;;4.68;;
60344;SDS011;46188;52.324;8.032;2023-07-28T04:36:13;7.35;;;4.30;;
60344;SDS011;46188;52.324;8.032;2023-07-28T04:38:38;7.10;;;4.35;;
60344;SDS011;46188;52.324;8.032;2023-07-28T04:41:03;7.50;;;4.15;;
60344;SDS011;46188;52.324;8.032;2023-07-28T04:43:28;6.88;;;4.30;;
60344;SDS011;46188;52.324;8.032;2023-07-28T04:45:54;6.47;;;4.60;;
60344;SDS011;46188;52.324;8.032;2023-07-28T04:48:19;5.65;;;4.03;;
60344;SDS011;46188;52.324;8.032;2023-07-28T04:50:44;8.32;;;5.30;;
60344;SDS011;46188;52.324;8.032;2023-07-28T04:53:10;11.20;;;5.40;;
60344;SDS011;46188;52.324;8.032;2023-07-28T04:55:35;7.45;;;5.43;;
60344;SDS011;46188;52.324;8.032;2023-07-28T04:58:00;7.53;;;5.32;;
60344;SDS011;46188;52.324;8.032;2023-07-28T05:00:26;9.23;;;5.78;;
60344;SDS011;46188;52.324;8.032;2023-07-28T05:02:51;9.48;;;5.82;;
60344;SDS011;46188;52.324;8.032;2023-07-28T05:05:16;8.05;;;5.35;;
60344;SDS011;46188;52.324;8.032;2023-07-28T05:07:42;9.55;;;5.97;;
60344;SDS011;46188;52.324;8.032;2023-07-28T05:10:07;8.45;;;5.85;;
60344;SDS011;46188;52.324;8.032;2023-07-28T05:12:33;9.05;;;5.43;;
60344;SDS011;46188;52.324;8.032;2023-07-28T05:14:58;9.30;;;5.90;;
60344;SDS011;46188;52.324;8.032;2023-07-28T05:17:23;8.50;;;6.13;;
60344;SDS011;46188;52.324;8.032;2023-07-28T05:19:52;7.40;;;5.25;;
60344;SDS011;46188;52.324;8.032;2023-07-28T05:22:17;9.85;;;6.00;;
60344;SDS011;46188;52.324;8.032;2023-07-28T05:24:43;12.20;;;6.20;;
60344;SDS011;46188;52.324;8.032;2023-07-28T05:27:09;9.18;;;6.20;;
60344;SDS011;46188;52.324;8.032;2023-07-28T05:29:35;8.57;;;5.88;;
60344;SDS011;46188;52.324;8.032;2023-07-28T05:32:00;8.55;;;6.03;;
60344;SDS011;46188;52.324;8.032;2023-07-28T05:34:25;10.38;;;7.05;;
60344;SDS011;46188;52.324;8.032;2023-07-28T05:36:51;10.60;;;7.10;;
60344;SDS011;46188;52.324;8.032;2023-07-28T05:39:16;11.40;;;6.30;;
60344;SDS011;46188;52.324;8.032;2023-07-28T05:41:41;9.57;;;6.15;;
60344;SDS011;46188;52.324;8.032;2023-07-28T05:44:06;13.27;;;7.00;;
60344;SDS011;46188;52.324;8.032;2023-07-28T05:46:32;9.98;;;6.18;;
60344;SDS011;46188;52.324;8.032;2023-07-28T05:48:57;10.35;;;5.53;;
60344;SDS011;46188;52.324;8.032;2023-07-28T05:51:23;12.90;;;6.05;;
60344;SDS011;46188;52.324;8.032;2023-07-28T05:53:49;8.73;;;6.20;;
60344;SDS011;46188;52.324;8.032;2023-07-28T05:56:14;9.77;;;5.85;;
60344;SDS011;46188;52.324;8.032;2023-07-28T05:58:40;8.40;;;6.40;;
60344;SDS011;46188;52.324;8.032;2023-07-28T06:01:05;9.70;;;5.60;;
60344;SDS011;46188;52.324;8.032;2023-07-28T06:03:30;8.15;;;5.90;;
60344;SDS011;46188;52.324;8.032;2023-07-28T06:05:56;9.50;;;6.35;;
60344;SDS011;46188;52.324;8.032;2023-07-28T06:08:21;9.02;;;5.97;;
60344;SDS011;46188;52.324;8.032;2023-07-28T06:10:47;11.60;;;6.15;;
60344;SDS011;46188;52.324;8.032;2023-07-28T06:13:12;9.93;;;5.87;;
60344;SDS011;46188;52.324;8.032;2023-07-28T06:15:41;9.02;;;5.82;;
60344;SDS011;46188;52.324;8.032;2023-07-28T06:18:07;9.95;;;6.05;;
60344;SDS011;46188;52.324;8.032;2023-07-28T06:20:32;8.23;;;6.20;;
60344;SDS011;46188;52.324;8.032;2023-07-28T06:22:59;8.57;;;6.10;;
60344;SDS011;46188;52.324;8.032;2023-07-28T06:25:24;7.78;;;5.22;;
60344;SDS011;46188;52.324;8.032;2023-07-28T06:27:50;6.68;;;5.45;;
60344;SDS011;46188;52.324;8.032;2023-07-28T06:30:15;8.77;;;6.22;;
60344;SDS011;46188;52.324;8.032;2023-07-28T06:32:41;7.57;;;5.82;;
60344;SDS011;46188;52.324;8.032;2023-07-28T06:35:06;6.35;;;4.97;;
60344;SDS011;46188;52.324;8.032;2023-07-28T06:37:32;7.88;;;5.78;;
60344;SDS011;46188;52.324;8.032;2023-07-28T06:39:58;8.57;;;5.82;;
60344;SDS011;46188;52.324;8.032;2023-07-28T06:42:23;8.05;;;5.20;;
60344;SDS011;46188;52.324;8.032;2023-07-28T06:44:49;10.70;;;5.35;;
60344;SDS011;46188;52.324;8.032;2023-07-28T06:47:16;7.03;;;5.07;;
60344;SDS011;46188;52.324;8.032;2023-07-28T06:49:41;8.80;;;4.72;;
60344;SDS011;46188;52.324;8.032;2023-07-28T06:52:06;6.25;;;5.20;;
60344;SDS011;46188;52.324;8.032;2023-07-28T06:54:32;7.60;;;5.40;;
60344;SDS011;46188;52.324;8.032;2023-07-28T06:56:57;5.63;;;4.78;;
60344;SDS011;46188;52.324;8.032;2023-07-28T06:59:22;10.80;;;4.50;;
60344;SDS011;46188;52.324;8.032;2023-07-28T07:01:47;7.22;;;5.45;;
60344;SDS011;46188;52.324;8.032;2023-07-28T07:04:13;5.70;;;4.28;;
60344;SDS011;46188;52.324;8.032;2023-07-28T07:06:38;7.88;;;4.32;;
60344;SDS011;46188;52.324;8.032;2023-07-28T07:09:03;5.25;;;4.50;;
60344;SDS011;46188;52.324;8.032;2023-07-28T07:11:30;7.40;;;3.97;;
60344;SDS011;46188;52.324;8.032;2023-07-28T07:13:56;6.80;;;4.75;;
60344;SDS011;46188;52.324;8.032;2023-07-28T07:16:21;5.00;;;3.83;;
60344;SDS011;46188;52.324;8.032;2023-07-28T07:18:48;5.15;;;3.88;;
60344;SDS011;46188;52.324;8.032;2023-07-28T07:21:13;6.47;;;4.28;;
60344;SDS011;46188;52.324;8.032;2023-07-28T07:23:38;6.88;;;4.20;;
60344;SDS011;46188;52.324;8.032;2023-07-28T07:26:04;7.07;;;3.57;;
60344;SDS011;46188;52.324;8.032;2023-07-28T07:28:29;5.65;;;3.42;;
60344;SDS011;46188;52.324;8.032;2023-07-28T07:30:54;7.17;;;3.67;;
60344;SDS011;46188;52.324;8.032;2023-07-28T07:33:20;4.78;;;3.45;;
60344;SDS011;46188;52.324;8.032;2023-07-28T07:35:45;4.43;;;3.42;;
60344;SDS011;46188;52.324;8.032;2023-07-28T07:38:11;6.03;;;3.60;;
60344;SDS011;46188;52.324;8.032;2023-07-28T07:40:36;3.95;;;3.47;;
60344;SDS011;46188;52.324;8.032;2023-07-28T07:43:02;8.90;;;4.03;;
60344;SDS011;46188;52.324;8.032;2023-07-28T07:45:28;5.65;;;4.03;;
60344;SDS011;46188;52.324;8.032;2023-07-28T07:47:54;4.70;;;3.58;;
60344;SDS011;46188;52.324;8.032;2023-07-28T07:50:20;3.90;;;3.22;;
60344;SDS011;46188;52.324;8.032;2023-07-28T07:52:46;4.90;;;3.40;;
60344;SDS011;46188;52.324;8.032;2023-07-28T07:55:12;7.05;;;3.53;;
60344;SDS011;46188;52.324;8.032;2023-07-28T07:57:37;4.90;;;3.78;;
60344;SDS011;46188;52.324;8.032;2023-07-28T08:00:02;4.82;;;3.50;;
60344;SDS011;46188;52.324;8.032;2023-07-28T08:02:28;5.68;;;4.00;;
60344;SDS011;46188;52.324;8.032;2023-07-28T08:04:53;3.67;;;3.25;;
60344;SDS011;46188;52.324;8.032;2023-07-28T08:07:19;5.43;;;3.78;;
60344;SDS011;46188;52.324;8.032;2023-07-28T08:09:44;4.05;;;2.90;;
60344;SDS011;46188;52.324;8.032;2023-07-28T08:12:10;6.00;;;3.85;;
60344;SDS011;46188;52.324;8.032;2023-07-28T08:14:36;6.25;;;3.15;;
60344;SDS011;46188;52.324;8.032;2023-07-28T08:17:01;4.20;;;3.28;;
60344;SDS011;46188;52.324;8.032;2023-07-28T08:19:26;4.97;;;3.33;;
60344;SDS011;46188;52.324;8.032;2023-07-28T08:21:52;3.42;;;2.92;;
60344;SDS011;46188;52.324;8.032;2023-07-28T08:24:17;5.47;;;3.70;;
60344;SDS011;46188;52.324;8.032;2023-07-28T08:26:42;5.75;;;4.07;;
60344;SDS011;46188;52.324;8.032;2023-07-28T08:29:08;4.72;;;3.45;;
60344;SDS011;46188;52.324;8.032;2023-07-28T08:31:33;5.20;;;3.75;;
60344;SDS011;46188;52.324;8.032;2023-07-28T08:33:58;6.28;;;3.75;;
60344;SDS011;46188;52.324;8.032;2023-07-28T08:36:24;5.40;;;3.75;;
60344;SDS011;46188;52.324;8.032;2023-07-28T08:38:49;4.20;;;3.80;;
60344;SDS011;46188;52.324;8.032;2023-07-28T08:41:14;6.28;;;3.75;;
60344;SDS011;46188;52.324;8.032;2023-07-28T08:43:39;5.78;;;3.95;;
60344;SDS011;46188;52.324;8.032;2023-07-28T08:46:05;6.93;;;4.38;;
60344;SDS011;46188;52.324;8.032;2023-07-28T08:48:30;5.93;;;4.18;;
60344;SDS011;46188;52.324;8.032;2023-07-28T08:50:56;5.68;;;3.65;;
60344;SDS011;46188;52.324;8.032;2023-07-28T08:53:21;4.82;;;3.67;;
60344;SDS011;46188;52.324;8.032;2023-07-28T08:55:47;5.53;;;3.65;;
60344;SDS011;46188;52.324;8.032;2023-07-28T08:58:20;5.18;;;4.07;;
60344;SDS011;46188;52.324;8.032;2023-07-28T09:00:46;8.77;;;3.95;;
60344;SDS011;46188;52.324;8.032;2023-07-28T09:03:16;6.18;;;4.15;;
60344;SDS011;46188;52.324;8.032;2023-07-28T09:05:45;5.35;;;4.28;;
60344;SDS011;46188;52.324;8.032;2023-07-28T09:08:14;4.95;;;3.60;;
60344;SDS011;46188;52.324;8.032;2023-07-28T09:10:44;5.38;;;3.92;;
60344;SDS011;46188;52.324;8.032;2023-07-28T09:13:14;4.78;;;4.13;;
60344;SDS011;46188;52.324;8.032;2023-07-28T09:15:41;5.20;;;4.22;;
60344;SDS011;46188;52.324;8.032;2023-07-28T09:18:09;5.80;;;4.13;;
60344;SDS011;46188;52.324;8.032;2023-07-28T09:20:37;4.57;;;4.00;;
60344;SDS011;46188;52.324;8.032;2023-07-28T09:23:06;7.85;;;4.32;;
60344;SDS011;46188;52.324;8.032;2023-07-28T09:25:33;6.00;;;3.60;;
60344;SDS011;46188;52.324;8.032;2023-07-28T09:27:59;5.70;;;3.75;;
60344;SDS011;46188;52.324;8.032;2023-07-28T09:30:25;6.95;;;4.10;;
60344;SDS011;46188;52.324;8.032;2023-07-28T09:32:52;4.53;;;3.28;;
60344;SDS011;46188;52.324;8.032;2023-07-28T09:35:19;4.85;;;3.38;;
60344;SDS011;46188;52.324;8.032;2023-07-28T09:37:47;4.97;;;3.25;;
60344;SDS011;46188;52.324;8.032;2023-07-28T09:40:16;3.33;;;2.85;;
60344;SDS011;46188;52.324;8.032;2023-07-28T09:42:42;4.13;;;2.80;;
60344;SDS011;46188;52.324;8.032;2023-07-28T09:45:09;4.82;;;2.50;;
60344;SDS011;46188;52.324;8.032;2023-07-28T09:47:36;6.75;;;2.90;;
60344;SDS011;46188;52.324;8.032;2023-07-28T09:50:02;3.13;;;2.75;;
60344;SDS011;46188;52.324;8.032;2023-07-28T09:52:31;4.38;;;2.50;;
60344;SDS011;46188;52.324;8.032;2023-07-28T09:55:04;5.70;;;2.72;;
60344;SDS011;46188;52.324;8.032;2023-07-28T09:57:33;3.55;;;2.50;;
60344;SDS011;46188;52.324;8.032;2023-07-28T10:00:03;3.70;;;2.75;;
60344;SDS011;46188;52.324;8.032;2023-07-28T10:02:30;4.10;;;3.05;;
60344;SDS011;46188;52.324;8.032;2023-07-28T10:04:56;4.50;;;3.00;;
60344;SDS011;46188;52.324;8.032;2023-07-28T10:07:23;4.55;;;3.38;;
60344;SDS011;46188;52.324;8.032;2023-07-28T10:09:49;5.88;;;3.50;;
60344;SDS011;46188;52.324;8.032;2023-07-28T10:12:18;4.85;;;3.58;;
60344;SDS011;46188;52.324;8.032;2023-07-28T10:14:59;4.45;;;3.25;;
60344;SDS011;46188;52.324;8.032;2023-07-28T10:17:30;4.55;;;2.97;;
60344;SDS011;46188;52.324;8.032;2023-07-28T10:20:02;4.25;;;3.33;;
60344;SDS011;46188;52.324;8.032;2023-07-28T10:22:34;4.72;;;3.45;;
60344;SDS011;46188;52.324;8.032;2023-07-28T10:25:08;4.93;;;2.92;;
60344;SDS011;46188;52.324;8.032;2023-07-28T10:27:36;4.15;;;2.85;;
60344;SDS011;46188;52.324;8.032;2023-07-28T10:30:04;4.30;;;2.65;;
60344;SDS011;46188;52.324;8.032;2023-07-28T10:32:37;5.82;;;3.63;;
60344;SDS011;46188;52.324;8.032;2023-07-28T10:37:43;6.38;;;3.88;;
60344;SDS011;46188;52.324;8.032;2023-07-28T10:43:00;7.85;;;3.55;;
60344;SDS011;46188;52.324;8.032;2023-07-28T10:45:26;5.20;;;3.92;;
60344;SDS011;46188;52.324;8.032;2023-07-28T10:47:53;6.28;;;4.25;;
60344;SDS011;46188;52.324;8.032;2023-07-28T10:50:21;7.40;;;4.63;;
60344;SDS011;46188;52.324;8.032;2023-07-28T10:52:47;6.70;;;4.35;;
60344;SDS011;46188;52.324;8.032;2023-07-28T10:55:13;5.65;;;4.15;;
60344;SDS011;46188;52.324;8.032;2023-07-28T10:57:43;6.45;;;4.65;;
60344;SDS011;46188;52.324;8.032;2023-07-28T11:00:10;5.35;;;4.10;;
60344;SDS011;46188;52.324;8.032;2023-07-28T11:02:38;8.15;;;5.50;;
60344;SDS011;46188;52.324;8.032;2023-07-28T11:05:19;7.07;;;4.97;;
60344;SDS011;46188;52.324;8.032;2023-07-28T11:07:53;8.55;;;5.03;;
60344;SDS011;46188;52.324;8.032;2023-07-28T11:10:20;5.05;;;4.55;;
60344;SDS011;46188;52.324;8.032;2023-07-28T11:12:46;7.75;;;4.82;;
60344;SDS011;46188;52.324;8.032;2023-07-28T11:15:14;7.07;;;5.70;;
60344;SDS011;46188;52.324;8.032;2023-07-28T11:17:41;8.85;;;5.80;;
60344;SDS011;46188;52.324;8.032;2023-07-28T11:20:15;7.00;;;5.38;;
60344;SDS011;46188;52.324;8.032;2023-07-28T11:22:44;9.30;;;5.30;;
60344;SDS011;46188;52.324;8.032;2023-07-28T11:25:11;6.60;;;5.53;;
60344;SDS011;46188;52.324;8.032;2023-07-28T11:27:37;7.93;;;5.28;;
60344;SDS011;46188;52.324;8.032;2023-07-28T11:30:03;10.02;;;5.38;;
60344;SDS011;46188;52.324;8.032;2023-07-28T11:32:28;9.82;;;6.03;;
60344;SDS011;46188;52.324;8.032;2023-07-28T11:34:55;8.38;;;5.50;;
60344;SDS011;46188;52.324;8.032;2023-07-28T11:37:20;9.65;;;5.38;;
60344;SDS011;46188;52.324;8.032;2023-07-28T11:39:46;8.18;;;5.82;;
60344;SDS011;46188;52.324;8.032;2023-07-28T11:42:11;10.63;;;6.75;;
60344;SDS011;46188;52.324;8.032;2023-07-28T11:44:38;7.40;;;5.97;;
60344;SDS011;46188;52.324;8.032;2023-07-28T11:47:04;9.98;;;6.63;;
60344;SDS011;46188;52.324;8.032;2023-07-28T11:49:30;8.45;;;7.63;;
60344;SDS011;46188;52.324;8.032;2023-07-28T11:51:56;8.10;;;6.65;;
60344;SDS011;46188;52.324;8.032;2023-07-28T11:54:24;8.20;;;6.35;;
60344;SDS011;46188;52.324;8.032;2023-07-28T11:56:51;9.93;;;7.53;;
60344;SDS011;46188;52.324;8.032;2023-07-28T11:59:20;10.40;;;7.50;;
60344;SDS011;46188;52.324;8.032;2023-07-28T12:01:58;9.85;;;8.05;;
60344;SDS011;46188;52.324;8.032;2023-07-28T12:04:28;10.45;;;8.43;;
60344;SDS011;46188;52.324;8.032;2023-07-28T12:07:08;8.70;;;7.70;;
60344;SDS011;46188;52.324;8.032;2023-07-28T12:12:26;9.00;;;8.05;;
60344;SDS011;46188;52.324;8.032;2023-07-28T12:14:54;10.02;;;7.63;;
60344;SDS011;46188;52.324;8.032;2023-07-28T12:17:30;11.30;;;8.93;;
60344;SDS011;46188;52.324;8.032;2023-07-28T12:22:39;10.25;;;7.78;;
60344;SDS011;46188;52.324;8.032;2023-07-28T12:25:06;8.50;;;7.40;;
60344;SDS011;46188;52.324;8.032;2023-07-28T12:27:31;13.75;;;7.32;;
60344;SDS011;46188;52.324;8.032;2023-07-28T12:29:57;7.90;;;6.72;;
60344;SDS011;46188;52.324;8.032;2023-07-28T12:32:22;9.80;;;7.00;;
60344;SDS011;46188;52.324;8.032;2023-07-28T12:34:48;8.70;;;6.45;;
60344;SDS011;46188;52.324;8.032;2023-07-28T12:37:14;10.73;;;6.78;;
60344;SDS011;46188;52.324;8.032;2023-07-28T12:39:40;9.27;;;6.68;;
60344;SDS011;46188;52.324;8.032;2023-07-28T12:42:06;9.13;;;6.53;;
60344;SDS011;46188;52.324;8.032;2023-07-28T12:44:32;8.15;;;6.28;;
60344;SDS011;46188;52.324;8.032;2023-07-28T12:46:58;7.15;;;5.50;;
60344;SDS011;46188;52.324;8.032;2023-07-28T12:49:23;8.50;;;6.03;;
60344;SDS011;46188;52.324;8.032;2023-07-28T12:51:49;8.02;;;5.88;;
60344;SDS011;46188;52.324;8.032;2023-07-28T12:54:14;7.53;;;5.40;;
60344;SDS011;46188;52.324;8.032;2023-07-28T12:56:40;6.97;;;5.68;;
60344;SDS011;46188;52.324;8.032;2023-07-28T12:59:05;8.20;;;5.03;;
60344;SDS011;46188;52.324;8.032;2023-07-28T13:01:30;9.03;;;6.47;;
60344;SDS011;46188;52.324;8.032;2023-07-28T13:03:55;9.83;;;4.70;;
60344;SDS011;46188;52.324;8.032;2023-07-28T13:06:21;7.63;;;5.43;;
60344;SDS011;46188;52.324;8.032;2023-07-28T13:08:46;10.35;;;5.60;;
60344;SDS011;46188;52.324;8.032;2023-07-28T13:11:11;6.27;;;4.93;;
60344;SDS011;46188;52.324;8.032;2023-07-28T13:13:39;6.05;;;4.10;;
60344;SDS011;46188;52.324;8.032;2023-07-28T13:16:04;9.15;;;4.80;;
60344;SDS011;46188;52.324;8.032;2023-07-28T13:18:30;5.97;;;5.18;;
60344;SDS011;46188;52.324;8.032;2023-07-28T13:20:57;7.80;;;4.70;;
60344;SDS011;46188;52.324;8.032;2023-07-28T13:23:23;11.43;;;4.82;;
60344;SDS011;46188;52.324;8.032;2023-07-28T13:25:48;7.27;;;5.10;;
60344;SDS011;46188;52.324;8.032;2023-07-28T13:28:13;5.00;;;4.20;;
60344;SDS011;46188;52.324;8.032;2023-07-28T13:30:39;5.50;;;3.83;;
60344;SDS011;46188;52.324;8.032;2023-07-28T13:33:04;5.25;;;4.05;;
60344;SDS011;46188;52.324;8.032;2023-07-28T13:35:31;3.92;;;3.28;;
60344;SDS011;46188;52.324;8.032;2023-07-28T13:37:56;5.95;;;3.05;;
60344;SDS011;46188;52.324;8.032;2023-07-28T13:40:22;9.73;;;3.50;;
60344;SDS011;46188;52.324;8.032;2023-07-28T13:42:47;5.13;;;3.10;;
60344;SDS011;46188;52.324;8.032;2023-07-28T13:45:12;6.40;;;3.25;;
60344;SDS011;46188;52.324;8.032;2023-07-28T13:47:37;4.60;;;3.10;;
60344;SDS011;46188;52.324;8.032;2023-07-28T13:50:03;4.30;;;2.70;;
60344;SDS011;46188;52.324;8.032;2023-07-28T13:52:28;5.70;;;3.10;;
60344;SDS011;46188;52.324;8.032;2023-07-28T13:54:53;4.30;;;2.97;;
60344;SDS011;46188;52.324;8.032;2023-07-28T13:57:19;5.18;;;3.05;;
60344;SDS011;46188;52.324;8.032;2023-07-28T13:59:44;3.45;;;3.15;;
60344;SDS011;46188;52.324;8.032;2023-07-28T14:02:10;4.97;;;2.90;;
60344;SDS011;46188;52.324;8.032;2023-07-28T14:04:35;3.53;;;2.80;;
60344;SDS011;46188;52.324;8.032;2023-07-28T14:07:00;5.22;;;3.03;;
60344;SDS011;46188;52.324;8.032;2023-07-28T14:09:25;4.30;;;3.30;;
60344;SDS011;46188;52.324;8.032;2023-07-28T14:11:51;3.40;;;2.78;;
60344;SDS011;46188;52.324;8.032;2023-07-28T14:14:16;6.95;;;3.42;;
60344;SDS011;46188;52.324;8.032;2023-07-28T14:16:42;6.67;;;2.93;;
60344;SDS011;46188;52.324;8.032;2023-07-28T14:19:07;10.07;;;3.13;;
60344;SDS011;46188;52.324;8.032;2023-07-28T14:21:33;4.20;;;2.72;;
60344;SDS011;46188;52.324;8.032;2023-07-28T14:23:58;3.10;;;2.67;;
60344;SDS011;46188;52.324;8.032;2023-07-28T14:26:23;2.97;;;2.53;;
60344;SDS011;46188;52.324;8.032;2023-07-28T14:28:49;4.15;;;2.95;;
60344;SDS011;46188;52.324;8.032;2023-07-28T14:31:14;4.27;;;3.00;;
60344;SDS011;46188;52.324;8.032;2023-07-28T14:33:39;5.35;;;2.97;;
60344;SDS011;46188;52.324;8.032;2023-07-28T14:36:04;4.45;;;3.05;;
60344;SDS011;46188;52.324;8.032;2023-07-28T14:38:30;3.90;;;2.73;;
60344;SDS011;46188;52.324;8.032;2023-07-28T14:40:55;3.13;;;2.50;;
60344;SDS011;46188;52.324;8.032;2023-07-28T14:43:20;3.40;;;2.57;;
60344;SDS011;46188;52.324;8.032;2023-07-28T14:45:46;5.53;;;2.90;;
60344;SDS011;46188;52.324;8.032;2023-07-28T14:48:13;3.13;;;2.45;;
60344;SDS011;46188;52.324;8.032;2023-07-28T14:50:39;5.38;;;3.40;;
60344;SDS011;46188;52.324;8.032;2023-07-28T14:53:10;5.28;;;3.03;;
60344;SDS011;46188;52.324;8.032;2023-07-28T14:56:00;4.32;;;3.08;;